Time;durP1;ratioP1;P1;durP2;ratioP2;P2;SDS_P1;SDS_P2;PMS_P1;PMS_P2;Temp;Humidity;BMP_temperature;BMP_pressure;BME280_temperature;BME280_humidity;BME280_pressure;Samples;Min_cycle;Max_cycle;Signal;HPM_P1;HPM_P2
2023/11/17 00:01:33;;;;;;;14.87;6.10;;;6.00;99.90;;;;;;4971349;28;20174;-72
2023/11/17 00:03:59;;;;;;;13.17;5.53;;;6.00;99.90;;;;;;4971084;28;20185;-73
2023/11/17 00:06:25;;;;;;;10.77;4.93;;;6.00;99.90;;;;;;4970778;28;20206;-73
2023/11/17 00:08:52;;;;;;;11.33;5.20;;;6.00;99.90;;;;;;4975314;28;20264;-72
2023/11/17 00:11:17;;;;;;;12.20;4.90;;;6.00;99.90;;;;;;4975092;28;20205;-72
2023/11/17 00:13:43;;;;;;;14.43;4.27;;;6.00;99.90;;;;;;4975268;28;20663;-72
2023/11/17 00:16:09;;;;;;;9.37;4.97;;;6.00;99.90;;;;;;4974322;28;20284;-73
2023/11/17 00:18:36;;;;;;;9.03;3.80;;;6.00;99.90;;;;;;4975275;28;20686;-73
2023/11/17 00:21:03;;;;;;;17.83;5.37;;;5.90;99.90;;;;;;4975003;28;20185;-72
2023/11/17 00:23:29;;;;;;;10.47;4.83;;;5.90;99.90;;;;;;4975157;28;20566;-72
2023/11/17 00:25:55;;;;;;;10.60;4.03;;;5.80;99.90;;;;;;4974359;28;20202;-73
2023/11/17 00:28:24;;;;;;;10.40;3.87;;;5.70;99.90;;;;;;4974951;28;20185;-72
2023/11/17 00:30:50;;;;;;;8.47;4.00;;;5.70;99.90;;;;;;4974910;28;20711;-74
2023/11/17 00:33:17;;;;;;;9.23;4.10;;;5.70;99.90;;;;;;4974984;28;20190;-72
2023/11/17 00:35:46;;;;;;;9.57;4.23;;;5.70;99.90;;;;;;4974128;28;20201;-72
2023/11/17 00:38:12;;;;;;;11.87;3.90;;;5.70;99.90;;;;;;4975055;28;20588;-72
2023/11/17 00:40:38;;;;;;;9.00;3.90;;;5.70;99.90;;;;;;4974798;28;20181;-72
2023/11/17 00:43:04;;;;;;;20.90;3.80;;;5.70;99.90;;;;;;4974641;28;20196;-72
2023/11/17 00:45:30;;;;;;;13.93;4.77;;;5.60;99.90;;;;;;4973943;28;20237;-73
2023/11/17 00:47:55;;;;;;;12.43;4.13;;;5.50;99.90;;;;;;4974813;28;20190;-73
2023/11/17 00:50:22;;;;;;;8.07;4.23;;;5.40;99.90;;;;;;4973177;28;20194;-72
2023/11/17 00:52:48;;;;;;;6.47;3.70;;;5.40;99.90;;;;;;4974578;28;20241;-72
2023/11/17 00:55:13;;;;;;;11.80;4.93;;;5.40;99.90;;;;;;4973461;28;20747;-72
2023/11/17 00:57:41;;;;;;;11.33;4.10;;;5.50;99.90;;;;;;4974460;28;20565;-72
2023/11/17 01:00:13;;;;;;;15.53;4.60;;;5.40;99.90;;;;;;4974352;28;20614;-72
2023/11/17 01:02:40;;;;;;;14.27;5.50;;;5.30;99.90;;;;;;4997655;28;20661;-72
2023/11/17 01:05:09;;;;;;;13.20;5.00;;;5.30;99.90;;;;;;4973420;28;20334;-73
2023/11/17 01:07:35;;;;;;;16.57;5.20;;;5.30;99.90;;;;;;4974440;28;20600;-72
2023/11/17 01:10:05;;;;;;;13.40;5.13;;;5.30;99.90;;;;;;4971838;28;20280;-72
2023/11/17 01:12:31;;;;;;;9.67;4.53;;;5.20;99.90;;;;;;4974120;28;20205;-73
2023/11/17 01:14:56;;;;;;;10.07;4.57;;;5.20;99.90;;;;;;4972319;28;20206;-72
2023/11/17 01:17:22;;;;;;;10.03;4.10;;;5.20;99.90;;;;;;4974075;28;20679;-73
2023/11/17 01:19:48;;;;;;;8.37;4.57;;;5.20;99.90;;;;;;4973946;28;20178;-72
2023/11/17 01:22:13;;;;;;;14.10;4.57;;;5.20;99.90;;;;;;4973783;28;20193;-72
2023/11/17 01:24:39;;;;;;;14.43;4.23;;;5.10;99.90;;;;;;4973180;28;20194;-72
2023/11/17 01:27:05;;;;;;;7.10;3.57;;;5.00;99.90;;;;;;4973897;28;20193;-72
2023/11/17 01:29:34;;;;;;;10.37;3.67;;;4.90;99.90;;;;;;4973957;28;20190;-72
2023/11/17 01:32:00;;;;;;;11.67;4.20;;;4.90;99.90;;;;;;4973655;28;20275;-72
2023/11/17 01:34:27;;;;;;;12.03;4.47;;;4.90;99.90;;;;;;4973187;28;20186;-72
2023/11/17 01:36:53;;;;;;;15.07;4.57;;;4.90;99.90;;;;;;4973585;28;20206;-73
2023/11/17 01:39:21;;;;;;;11.17;3.87;;;4.90;99.90;;;;;;4973526;28;20174;-72
2023/11/17 01:41:50;;;;;;;6.03;3.40;;;4.90;99.90;;;;;;4973734;28;20661;-72
2023/11/17 01:44:16;;;;;;;7.17;3.20;;;4.80;99.90;;;;;;4972847;28;20720;-72
2023/11/17 01:46:42;;;;;;;8.17;3.57;;;4.70;99.90;;;;;;4973798;28;20289;-72
2023/11/17 01:49:08;;;;;;;10.27;3.23;;;4.70;99.90;;;;;;4973525;28;20189;-72
2023/11/17 01:51:36;;;;;;;7.87;3.47;;;4.70;99.90;;;;;;4973379;28;20695;-72
2023/11/17 01:54:03;;;;;;;7.23;3.90;;;4.70;99.90;;;;;;4972778;28;20182;-72
2023/11/17 01:56:30;;;;;;;9.23;3.80;;;4.70;99.90;;;;;;4973119;28;20226;-72
2023/11/17 01:58:56;;;;;;;8.20;3.60;;;4.70;99.90;;;;;;4973643;28;20660;-72
2023/11/17 02:01:21;;;;;;;8.37;3.60;;;4.70;99.90;;;;;;4973152;28;20186;-73
2023/11/17 02:03:48;;;;;;;6.67;3.77;;;4.70;99.90;;;;;;4973695;28;20200;-73
2023/11/17 02:06:41;;;;;;;9.33;5.07;;;4.70;99.90;;;;;;4972270;28;20264;-73
2023/11/17 02:09:34;;;;;;;15.17;4.07;;;4.70;99.90;;;;;;4972976;28;20189;-71
2023/11/17 02:12:48;;;;;;;8.87;3.70;;;4.60;99.90;;;;;;4967938;28;20217;-72
2023/11/17 02:15:21;;;;;;;5.73;3.37;;;4.60;99.90;;;;;;4970772;28;20225;-72
2023/11/17 02:17:52;;;;;;;6.67;3.53;;;4.60;99.90;;;;;;4973106;28;20186;-72
2023/11/17 02:20:25;;;;;;;5.60;3.57;;;4.60;99.90;;;;;;4972818;28;20190;-73
2023/11/17 02:22:59;;;;;;;7.20;3.50;;;4.60;99.90;;;;;;4972968;28;20571;-73
2023/11/17 02:25:37;;;;;;;16.53;3.67;;;4.60;99.90;;;;;;4964455;28;20205;-72
2023/11/17 02:28:50;;;;;;;8.83;4.00;;;4.60;99.90;;;;;;4972766;28;20652;-72
2023/11/17 02:31:25;;;;;;;12.80;4.23;;;4.60;99.90;;;;;;4963605;28;20720;-73
2023/11/17 02:33:51;;;;;;;12.17;4.07;;;4.50;99.90;;;;;;4972825;28;20196;-72
2023/11/17 02:36:17;;;;;;;11.73;4.70;;;4.50;99.90;;;;;;4971590;28;20217;-72
2023/11/17 02:38:56;;;;;;;9.77;3.90;;;4.50;99.90;;;;;;4973066;28;20186;-72
2023/11/17 02:41:29;;;;;;;7.40;3.80;;;4.50;99.90;;;;;;4972743;28;20505;-72
2023/11/17 02:44:02;;;;;;;6.97;3.90;;;4.40;99.90;;;;;;4972589;28;20252;-72
2023/11/17 02:46:32;;;;;;;6.97;3.10;;;4.40;99.90;;;;;;4972343;28;20719;-72
2023/11/17 02:49:03;;;;;;;11.80;3.90;;;4.40;99.90;;;;;;4972590;28;20206;-72
2023/11/17 02:51:43;;;;;;;7.43;3.57;;;4.40;99.90;;;;;;4965025;28;20577;-72
2023/11/17 02:54:12;;;;;;;8.87;4.07;;;4.50;99.90;;;;;;4971825;28;20181;-72
2023/11/17 02:56:39;;;;;;;9.97;3.73;;;4.50;99.90;;;;;;4972205;28;20271;-72
2023/11/17 02:59:11;;;;;;;11.67;4.03;;;4.50;99.90;;;;;;4972167;28;20185;-73
2023/11/17 03:01:41;;;;;;;13.23;5.27;;;4.50;99.90;;;;;;4972253;28;20186;-72
2023/11/17 03:04:16;;;;;;;8.50;4.73;;;4.50;99.90;;;;;;4970285;28;20244;-72
2023/11/17 03:06:49;;;;;;;11.57;4.60;;;4.60;99.90;;;;;;4971898;28;20209;-72
2023/11/17 03:09:16;;;;;;;8.77;4.10;;;4.60;99.90;;;;;;4971918;28;20209;-73
2023/11/17 03:11:44;;;;;;;8.97;4.30;;;4.50;99.90;;;;;;4970737;28;20221;-72
2023/11/17 03:14:12;;;;;;;8.93;4.63;;;4.60;99.90;;;;;;4971316;28;20197;-72
2023/11/17 03:16:38;;;;;;;11.40;4.80;;;4.60;99.90;;;;;;4971933;28;20224;-72
2023/11/17 03:19:11;;;;;;;12.27;4.60;;;4.60;99.90;;;;;;4971770;28;20661;-72
2023/11/17 03:21:40;;;;;;;12.57;5.30;;;4.60;99.90;;;;;;4971776;28;20240;-71
2023/11/17 03:24:14;;;;;;;16.17;5.57;;;4.70;99.90;;;;;;4970827;28;20194;-73
2023/11/17 03:26:46;;;;;;;9.50;5.20;;;4.70;99.90;;;;;;4970705;28;20210;-72
2023/11/17 03:29:16;;;;;;;10.90;5.37;;;4.60;99.90;;;;;;4971763;28;20192;-72
2023/11/17 03:31:48;;;;;;;10.70;4.53;;;4.60;99.90;;;;;;4971747;28;20233;-72
2023/11/17 03:34:18;;;;;;;13.97;4.50;;;4.60;99.90;;;;;;4970992;28;20188;-72
2023/11/17 03:36:44;;;;;;;13.60;5.57;;;4.40;99.90;;;;;;4971511;28;20689;-72
2023/11/17 03:39:12;;;;;;;11.53;5.50;;;4.30;99.90;;;;;;4971593;28;20277;-72
2023/11/17 03:41:41;;;;;;;16.40;6.80;;;4.30;99.90;;;;;;4970822;28;20182;-72
2023/11/17 03:44:07;;;;;;;15.70;6.27;;;4.30;99.90;;;;;;4970981;28;20248;-71
2023/11/17 03:46:33;;;;;;;12.10;6.23;;;4.20;99.90;;;;;;4971544;28;20615;-72
2023/11/17 03:48:59;;;;;;;12.63;6.13;;;4.10;99.90;;;;;;4971673;28;20189;-71
2023/11/17 03:51:25;;;;;;;12.47;6.30;;;4.10;99.90;;;;;;4971359;28;20615;-73
2023/11/17 03:53:51;;;;;;;14.73;6.77;;;4.10;99.90;;;;;;4971668;28;20190;-72
2023/11/17 03:56:20;;;;;;;13.70;6.83;;;4.10;99.90;;;;;;4970213;28;20604;-72
2023/11/17 03:58:45;;;;;;;17.23;7.30;;;4.10;99.90;;;;;;4971575;28;20174;-73
2023/11/17 04:01:11;;;;;;;13.80;6.87;;;4.10;99.90;;;;;;4971195;28;20605;-73
2023/11/17 04:03:36;;;;;;;16.23;7.60;;;4.10;99.90;;;;;;4971435;28;20194;-72
2023/11/17 04:06:03;;;;;;;23.30;7.70;;;4.00;99.90;;;;;;4970312;28;20213;-73
2023/11/17 04:08:29;;;;;;;14.80;7.40;;;4.00;99.90;;;;;;4971419;28;20551;-72
2023/11/17 04:10:55;;;;;;;17.77;7.57;;;4.00;99.90;;;;;;4971358;28;20201;-72
2023/11/17 04:13:24;;;;;;;16.90;7.27;;;4.00;99.90;;;;;;4971256;28;20605;-72
2023/11/17 04:15:49;;;;;;;19.77;8.20;;;4.10;99.90;;;;;;4970721;28;20702;-72
2023/11/17 04:18:15;;;;;;;16.87;6.73;;;4.00;99.90;;;;;;4969941;28;20178;-72
2023/11/17 04:20:41;;;;;;;23.53;8.90;;;4.00;99.90;;;;;;4971206;28;20184;-72
2023/11/17 04:23:06;;;;;;;14.40;7.37;;;4.10;99.90;;;;;;4971116;28;20217;-73
2023/11/17 04:25:33;;;;;;;11.97;6.27;;;4.00;99.90;;;;;;4970631;28;20205;-72
2023/11/17 04:27:58;;;;;;;15.00;7.10;;;4.00;99.90;;;;;;4971284;28;20228;-73
2023/11/17 04:30:24;;;;;;;13.90;6.37;;;3.90;99.90;;;;;;4970979;28;20677;-72
2023/11/17 04:32:50;;;;;;;15.57;7.53;;;3.90;99.90;;;;;;4971281;28;20329;-72
2023/11/17 04:35:15;;;;;;;13.87;6.80;;;3.90;99.90;;;;;;5001540;28;20207;-72
2023/11/17 04:37:41;;;;;;;20.47;8.73;;;3.80;99.90;;;;;;4971158;28;20291;-72
2023/11/17 04:40:13;;;;;;;17.57;7.57;;;3.70;99.90;;;;;;4971119;28;20182;-72
2023/11/17 04:42:39;;;;;;;19.53;6.70;;;3.70;99.90;;;;;;4971159;28;20186;-72
2023/11/17 04:45:08;;;;;;;18.20;6.57;;;3.70;99.90;;;;;;4970075;28;20201;-72
2023/11/17 04:47:33;;;;;;;16.63;7.73;;;3.60;99.90;;;;;;4971104;28;20236;-72
2023/11/17 04:49:59;;;;;;;13.50;7.13;;;3.60;99.90;;;;;;4971085;28;20612;-72
2023/11/17 04:52:25;;;;;;;14.00;7.27;;;3.70;99.90;;;;;;4970790;28;20288;-72
2023/11/17 04:54:51;;;;;;;14.00;7.67;;;3.70;99.90;;;;;;4973778;28;20205;-72
2023/11/17 04:57:17;;;;;;;17.10;7.40;;;3.70;99.90;;;;;;4974279;28;20290;-72
2023/11/17 04:59:44;;;;;;;11.50;5.67;;;3.70;99.90;;;;;;4974560;28;20213;-72
2023/11/17 05:02:09;;;;;;;20.03;7.40;;;3.60;99.90;;;;;;4974347;28;20190;-72
2023/11/17 05:04:35;;;;;;;18.10;9.47;;;3.50;99.90;;;;;;4973693;28;20550;-72
2023/11/17 05:07:01;;;;;;;14.13;7.23;;;3.60;99.90;;;;;;4974090;28;20182;-73
2023/11/17 05:09:27;;;;;;;17.33;7.87;;;3.50;99.90;;;;;;4966576;28;20190;-72
2023/11/17 05:11:52;;;;;;;14.37;7.40;;;3.50;99.90;;;;;;4974186;28;20216;-72
2023/11/17 05:14:18;;;;;;;14.00;6.80;;;3.60;99.90;;;;;;4973378;28;20189;-72
2023/11/17 05:16:45;;;;;;;13.60;7.07;;;3.60;99.90;;;;;;4974069;28;20205;-73
2023/11/17 05:19:13;;;;;;;12.07;6.67;;;3.60;99.90;;;;;;4973946;28;20637;-72
2023/11/17 05:21:39;;;;;;;13.70;7.00;;;3.60;99.90;;;;;;4974013;28;20186;-72
2023/11/17 05:24:05;;;;;;;13.47;7.37;;;3.60;99.90;;;;;;4973461;28;20194;-72
2023/11/17 05:26:30;;;;;;;15.63;7.53;;;3.60;99.90;;;;;;4973776;28;20288;-72
2023/11/17 05:28:56;;;;;;;14.57;7.20;;;3.60;99.90;;;;;;4974009;28;20676;-72
2023/11/17 05:31:22;;;;;;;15.87;7.57;;;3.60;99.90;;;;;;4973745;28;20722;-72
2023/11/17 05:33:47;;;;;;;23.20;8.80;;;3.50;99.90;;;;;;4973936;28;20521;-72
2023/11/17 05:36:14;;;;;;;29.63;10.33;;;3.50;99.90;;;;;;4972912;28;20645;-72
2023/11/17 05:38:40;;;;;;;15.80;7.33;;;3.50;99.90;;;;;;4973821;28;20174;-72
2023/11/17 05:41:06;;;;;;;15.07;7.13;;;3.50;99.90;;;;;;4973165;28;20190;-71
2023/11/17 05:43:31;;;;;;;21.23;7.67;;;3.50;99.90;;;;;;4972519;28;20555;-71
2023/11/17 05:46:00;;;;;;;17.43;7.67;;;3.60;99.90;;;;;;4972978;28;20202;-71
2023/11/17 05:48:25;;;;;;;13.63;6.50;;;3.60;99.90;;;;;;4973473;28;20178;-72
2023/11/17 05:50:51;;;;;;;16.33;7.40;;;3.50;99.90;;;;;;4973547;28;20181;-72
2023/11/17 05:53:17;;;;;;;15.47;7.30;;;3.50;99.90;;;;;;4973307;28;20214;-72
2023/11/17 05:55:42;;;;;;;17.60;6.60;;;3.40;99.90;;;;;;4972587;28;20225;-72
2023/11/17 05:58:08;;;;;;;17.07;6.90;;;3.40;99.90;;;;;;4973289;28;20193;-72
2023/11/17 06:00:33;;;;;;;18.33;7.10;;;3.50;99.90;;;;;;4973368;28;20182;-72
2023/11/17 06:02:59;;;;;;;14.17;6.70;;;3.40;99.90;;;;;;4973290;28;20181;-72
2023/11/17 06:05:25;;;;;;;12.10;6.73;;;3.40;99.90;;;;;;4971263;28;20560;-73
2023/11/17 06:07:51;;;;;;;15.73;6.87;;;3.40;99.90;;;;;;4973312;28;20197;-72
2023/11/17 06:10:16;;;;;;;13.67;7.87;;;3.40;99.90;;;;;;4972838;28;20189;-72
2023/11/17 06:12:42;;;;;;;17.53;7.30;;;3.40;99.90;;;;;;4973234;28;20233;-72
2023/11/17 06:15:10;;;;;;;22.47;7.70;;;3.40;99.90;;;;;;4972208;28;20202;-72
2023/11/17 06:17:35;;;;;;;23.20;8.40;;;3.20;99.90;;;;;;4973112;28;20170;-72
2023/11/17 06:20:03;;;;;;;16.20;7.33;;;3.30;99.90;;;;;;4972901;28;20665;-74
2023/11/17 06:22:29;;;;;;;18.47;8.13;;;3.30;99.90;;;;;;4965326;28;20236;-71
2023/11/17 06:24:55;;;;;;;16.20;8.43;;;3.30;99.90;;;;;;4972116;28;20209;-72
2023/11/17 06:27:23;;;;;;;21.23;8.53;;;3.30;99.90;;;;;;4972654;28;20188;-73
2023/11/17 06:29:49;;;;;;;20.40;8.13;;;3.40;99.90;;;;;;4972898;28;20268;-72
2023/11/17 06:32:15;;;;;;;17.13;7.87;;;3.40;99.90;;;;;;4972665;28;20304;-72
2023/11/17 06:34:40;;;;;;;20.03;8.73;;;3.40;99.90;;;;;;4972078;28;20183;-71
2023/11/17 06:37:07;;;;;;;16.63;7.77;;;3.40;99.90;;;;;;4971253;28;20193;-72
2023/11/17 06:39:33;;;;;;;15.43;8.03;;;3.30;99.90;;;;;;4972686;28;20181;-72
2023/11/17 06:41:58;;;;;;;14.80;6.90;;;3.30;99.90;;;;;;4972770;28;20186;-72
2023/11/17 06:44:25;;;;;;;15.80;7.27;;;3.40;99.90;;;;;;4971834;28;20174;-72
2023/11/17 06:46:52;;;;;;;16.40;8.63;;;3.40;99.90;;;;;;4972661;28;20213;-72
2023/11/17 06:49:19;;;;;;;17.27;7.87;;;3.40;99.90;;;;;;4971096;28;20194;-72
2023/11/17 06:51:50;;;;;;;15.70;7.73;;;3.40;99.90;;;;;;4972253;28;20198;-72
2023/11/17 06:54:17;;;;;;;13.97;7.67;;;3.30;99.90;;;;;;4971706;28;20232;-72
2023/11/17 06:56:44;;;;;;;18.20;7.23;;;3.40;99.90;;;;;;4972061;28;20206;-72
2023/11/17 06:59:11;;;;;;;19.47;9.50;;;3.40;99.90;;;;;;4972069;28;20173;-73
2023/11/17 07:01:37;;;;;;;17.23;8.00;;;3.30;99.90;;;;;;4971448;28;20661;-72
2023/11/17 07:04:06;;;;;;;13.70;6.77;;;3.10;99.90;;;;;;4970776;28;20189;-72
2023/11/17 07:06:32;;;;;;;17.17;7.47;;;3.20;99.90;;;;;;4971363;28;20202;-72
2023/11/17 07:08:58;;;;;;;14.70;6.90;;;3.10;99.90;;;;;;4971771;28;20239;-72
2023/11/17 07:11:24;;;;;;;21.03;7.53;;;3.20;99.90;;;;;;4971311;28;20681;-72
2023/11/17 07:13:52;;;;;;;17.70;8.10;;;3.20;99.90;;;;;;4971630;28;20665;-72
2023/11/17 07:16:20;;;;;;;18.47;9.27;;;3.20;99.90;;;;;;4970495;28;20208;-72
2023/11/17 07:18:46;;;;;;;19.10;9.00;;;3.30;99.90;;;;;;4971523;28;20174;-72
2023/11/17 07:21:13;;;;;;;23.00;9.27;;;3.30;99.90;;;;;;4971126;28;20232;-72
2023/11/17 07:23:43;;;;;;;22.33;9.87;;;3.30;99.90;;;;;;4971409;28;20182;-72
2023/11/17 07:26:18;;;;;;;22.37;9.93;;;3.40;99.90;;;;;;4970434;28;20205;-72
2023/11/17 07:28:46;;;;;;;20.80;9.00;;;3.50;99.90;;;;;;4971557;28;20186;-73
2023/11/17 07:31:12;;;;;;;19.20;9.67;;;3.50;99.90;;;;;;4971000;28;20178;-72
2023/11/17 07:33:38;;;;;;;18.70;9.20;;;3.60;99.90;;;;;;4971443;28;20266;-72
2023/11/17 07:36:04;;;;;;;15.40;8.20;;;3.60;99.90;;;;;;4970118;28;20306;-72
2023/11/17 07:38:29;;;;;;;18.33;9.87;;;3.70;99.90;;;;;;4971374;28;20182;-72
2023/11/17 07:40:55;;;;;;;22.27;9.57;;;3.70;99.90;;;;;;4971272;28;20245;-72
2023/11/17 07:43:20;;;;;;;19.73;9.70;;;3.60;99.90;;;;;;4971070;28;20190;-72
2023/11/17 07:45:46;;;;;;;25.23;9.73;;;3.60;99.90;;;;;;4970442;28;20201;-73
2023/11/17 07:48:12;;;;;;;20.30;9.93;;;3.70;99.90;;;;;;4970966;28;20228;-72
2023/11/17 07:50:41;;;;;;;24.87;10.10;;;3.70;99.90;;;;;;4971335;28;20188;-72
2023/11/17 07:53:08;;;;;;;23.20;11.37;;;3.80;99.90;;;;;;4970995;28;20206;-73
2023/11/17 07:55:34;;;;;;;21.73;11.70;;;3.80;99.90;;;;;;4970409;28;20625;-72
2023/11/17 07:58:01;;;;;;;22.50;11.77;;;3.80;99.90;;;;;;4971063;28;20182;-73
2023/11/17 08:00:28;;;;;;;31.53;16.10;;;3.80;99.90;;;;;;4994164;28;20209;-73
2023/11/17 08:02:54;;;;;;;35.80;18.20;;;3.80;99.90;;;;;;4971107;28;20193;-73
2023/11/17 08:05:20;;;;;;;33.93;16.10;;;3.80;99.90;;;;;;4970180;28;20575;-72
2023/11/17 08:07:49;;;;;;;30.50;14.93;;;3.90;99.90;;;;;;4971052;28;20174;-72
2023/11/17 08:10:15;;;;;;;32.17;14.77;;;3.90;99.90;;;;;;4970800;28;20560;-72
2023/11/17 08:12:41;;;;;;;32.63;13.97;;;3.90;99.90;;;;;;4970860;28;20209;-72
2023/11/17 08:15:08;;;;;;;24.83;13.00;;;3.90;99.90;;;;;;4970274;28;20198;-73
2023/11/17 08:17:37;;;;;;;24.53;11.90;;;3.90;99.90;;;;;;4971080;28;20178;-72
2023/11/17 08:20:10;;;;;;;23.17;10.87;;;4.00;99.90;;;;;;4970761;28;20253;-73
2023/11/17 08:22:36;;;;;;;18.53;9.97;;;4.00;99.90;;;;;;4963813;28;20217;-73
2023/11/17 08:25:02;;;;;;;19.70;9.97;;;4.00;99.90;;;;;;4993146;28;20236;-73
2023/11/17 08:27:28;;;;;;;21.20;9.60;;;4.10;99.90;;;;;;4970748;28;20182;-73
2023/11/17 08:29:54;;;;;;;23.60;9.53;;;4.20;99.90;;;;;;4974435;28;20182;-73
2023/11/17 08:32:20;;;;;;;19.10;10.17;;;4.20;99.90;;;;;;4974151;28;20232;-72
2023/11/17 08:34:46;;;;;;;31.97;12.17;;;4.20;99.90;;;;;;4973812;28;20265;-72
2023/11/17 08:37:12;;;;;;;23.90;10.20;;;4.30;99.90;;;;;;4973607;28;20178;-72
2023/11/17 08:39:38;;;;;;;25.20;11.70;;;4.50;99.90;;;;;;4974159;28;20182;-73
2023/11/17 08:42:04;;;;;;;30.67;13.60;;;4.50;99.90;;;;;;5005482;28;20284;-73
2023/11/17 08:44:29;;;;;;;26.67;12.00;;;4.60;99.90;;;;;;4965871;28;20277;-73
2023/11/17 08:46:55;;;;;;;28.27;12.70;;;4.70;99.90;;;;;;4974087;28;20689;-73
2023/11/17 08:49:21;;;;;;;29.90;12.17;;;4.70;99.90;;;;;;4973877;28;20202;-73
2023/11/17 08:51:47;;;;;;;28.90;11.60;;;4.80;99.90;;;;;;4973967;28;20256;-74
2023/11/17 08:54:17;;;;;;;23.10;11.73;;;5.00;99.90;;;;;;4973237;28;20180;-74
2023/11/17 08:56:47;;;;;;;30.23;12.37;;;5.00;99.90;;;;;;4973425;28;20210;-73
2023/11/17 08:59:13;;;;;;;32.33;11.90;;;5.00;99.90;;;;;;4973549;28;20182;-72
2023/11/17 09:01:39;;;;;;;26.17;11.50;;;5.10;99.90;;;;;;4973923;28;20182;-72
2023/11/17 09:04:05;;;;;;;25.47;11.80;;;5.20;99.90;;;;;;4973044;28;20547;-74
2023/11/17 09:06:30;;;;;;;25.27;11.63;;;5.30;99.90;;;;;;4972101;28;20209;-72
2023/11/17 09:08:56;;;;;;;27.80;11.23;;;5.30;99.90;;;;;;4973488;28;20281;-72
2023/11/17 09:11:21;;;;;;;22.97;10.53;;;5.40;99.90;;;;;;4972852;28;20249;-73
2023/11/17 09:13:49;;;;;;;32.20;12.17;;;5.50;99.90;;;;;;4973385;28;20713;-73
2023/11/17 09:16:15;;;;;;;24.97;11.30;;;5.50;99.90;;;;;;4972330;28;20198;-73
2023/11/17 09:18:41;;;;;;;28.43;12.83;;;5.50;99.90;;;;;;4973235;28;20181;-73
2023/11/17 09:21:07;;;;;;;26.27;12.17;;;5.60;99.90;;;;;;4973384;28;20194;-73
2023/11/17 09:23:36;;;;;;;25.00;12.03;;;5.70;99.90;;;;;;4973545;28;20177;-73
2023/11/17 09:26:02;;;;;;;26.30;12.57;;;5.80;99.90;;;;;;4972834;28;20233;-73
2023/11/17 09:28:28;;;;;;;32.67;11.70;;;5.90;99.90;;;;;;4971803;28;20206;-73
2023/11/17 09:30:54;;;;;;;24.63;11.63;;;5.90;99.90;;;;;;4973413;28;20189;-72
2023/11/17 09:33:19;;;;;;;29.43;11.73;;;5.90;99.90;;;;;;4973086;28;20205;-73
2023/11/17 09:35:48;;;;;;;29.63;13.07;;;5.90;99.90;;;;;;4972501;28;20206;-73
2023/11/17 09:38:16;;;;;;;31.50;12.37;;;6.00;99.90;;;;;;4973171;28;20260;-72
2023/11/17 09:40:42;;;;;;;27.63;12.07;;;6.00;99.90;;;;;;4973137;28;20185;-73
2023/11/17 09:43:22;;;;;;;31.20;13.53;;;6.00;99.90;;;;;;4973005;28;20201;-74
2023/11/17 09:45:51;;;;;;;29.20;12.23;;;6.00;99.90;;;;;;4972462;28;20676;-72
2023/11/17 09:48:17;;;;;;;24.33;12.23;;;6.10;99.90;;;;;;4973068;28;20180;-73
2023/11/17 09:50:43;;;;;;;30.87;12.97;;;6.10;99.90;;;;;;4971594;28;20182;-72
2023/11/17 09:53:13;;;;;;;27.10;13.17;;;6.20;99.90;;;;;;4972726;28;20201;-72
2023/11/17 09:55:42;;;;;;;24.10;12.40;;;6.30;99.90;;;;;;4972126;28;20293;-73
2023/11/17 09:58:20;;;;;;;28.50;12.33;;;6.20;99.90;;;;;;4972726;28;20616;-73
2023/11/17 10:00:47;;;;;;;19.47;9.63;;;6.30;99.90;;;;;;4972984;28;20653;-73
2023/11/17 10:03:13;;;;;;;27.10;10.03;;;6.40;99.90;;;;;;4972663;28;20618;-73
2023/11/17 10:05:40;;;;;;;26.77;10.87;;;6.40;99.90;;;;;;4971786;28;20201;-73
2023/11/17 10:08:07;;;;;;;23.20;11.10;;;6.40;99.90;;;;;;4972554;28;20705;-74
2023/11/17 10:10:37;;;;;;;26.37;10.87;;;6.40;99.90;;;;;;4972757;28;20668;-72
2023/11/17 10:13:10;;;;;;;29.30;12.43;;;6.50;99.90;;;;;;4972613;28;20206;-72
2023/11/17 10:15:50;;;;;;;23.70;11.30;;;6.60;99.90;;;;;;4964848;28;20210;-73
2023/11/17 10:18:26;;;;;;;22.70;10.63;;;6.60;99.90;;;;;;4972444;28;20181;-73
2023/11/17 10:20:53;;;;;;;26.53;11.60;;;6.60;99.90;;;;;;4972547;28;20186;-73
2023/11/17 10:23:20;;;;;;;30.47;11.10;;;6.70;99.90;;;;;;4972561;28;20232;-73
2023/11/17 10:25:52;;;;;;;23.40;10.73;;;6.80;99.90;;;;;;4971629;28;20288;-73
2023/11/17 10:28:19;;;;;;;20.70;10.37;;;6.80;99.90;;;;;;4972228;28;20193;-73
2023/11/17 10:30:46;;;;;;;19.93;9.33;;;6.90;99.90;;;;;;4972291;28;20182;-73
2023/11/17 10:33:33;;;;;;;20.40;9.50;;;7.00;99.90;;;;;;4972041;28;20232;-73
2023/11/17 10:36:04;;;;;;;21.03;10.60;;;7.10;99.90;;;;;;4987520;28;20202;-73
2023/11/17 10:38:34;;;;;;;22.53;10.57;;;7.10;99.90;;;;;;4972180;28;20372;-73
2023/11/17 10:41:17;;;;;;;20.80;9.80;;;7.20;99.90;;;;;;4969911;28;20189;-73
2023/11/17 10:43:50;;;;;;;20.20;8.43;;;7.20;99.90;;;;;;4972388;28;20212;-73
2023/11/17 10:46:21;;;;;;;21.20;8.97;;;7.20;99.90;;;;;;4971067;28;20642;-73
2023/11/17 10:48:51;;;;;;;17.37;9.17;;;7.20;99.90;;;;;;4972042;28;20178;-73
2023/11/17 10:51:18;;;;;;;18.57;9.23;;;7.10;99.90;;;;;;4971027;28;20178;-73
2023/11/17 10:54:03;;;;;;;18.20;8.63;;;7.00;99.90;;;;;;4970489;28;20192;-73
2023/11/17 10:56:29;;;;;;;20.43;9.30;;;6.90;99.90;;;;;;4971293;28;20206;-72
2023/11/17 10:58:55;;;;;;;21.77;9.83;;;6.90;99.90;;;;;;4971954;28;20193;-73
2023/11/17 11:01:22;;;;;;;21.43;9.30;;;6.90;99.90;;;;;;4972047;28;20182;-73
2023/11/17 11:03:47;;;;;;;18.63;9.63;;;6.80;99.90;;;;;;4971987;28;20594;-73
2023/11/17 11:06:16;;;;;;;20.17;10.07;;;6.80;99.90;;;;;;4970699;28;20212;-72
2023/11/17 11:08:54;;;;;;;27.50;9.80;;;6.80;99.90;;;;;;4971631;28;20210;-73
2023/11/17 11:11:23;;;;;;;16.50;7.73;;;6.90;99.90;;;;;;4971296;28;20205;-73
2023/11/17 11:14:02;;;;;;;22.03;8.90;;;6.90;99.90;;;;;;4971504;28;20186;-75
2023/11/17 11:16:33;;;;;;;21.37;9.27;;;7.00;99.90;;;;;;4970968;28;20189;-75
2023/11/17 11:18:59;;;;;;;15.63;8.50;;;7.00;99.90;;;;;;4971468;28;20185;-75
2023/11/17 11:21:33;;;;;;;19.47;8.63;;;7.00;99.90;;;;;;4970023;28;20188;-75
2023/11/17 11:24:01;;;;;;;23.50;10.03;;;7.10;99.90;;;;;;4971349;28;20189;-75
2023/11/17 11:26:28;;;;;;;19.53;8.47;;;7.10;99.90;;;;;;4970747;28;20669;-75
2023/11/17 11:28:54;;;;;;;18.73;8.73;;;7.10;99.90;;;;;;4971183;28;20567;-75
2023/11/17 11:31:21;;;;;;;16.00;7.47;;;7.00;99.90;;;;;;4970945;28;20193;-75
2023/11/17 11:33:47;;;;;;;15.33;7.77;;;7.10;99.90;;;;;;4971469;28;20181;-75
2023/11/17 11:36:14;;;;;;;17.07;8.27;;;7.00;99.90;;;;;;4970013;28;20206;-75
2023/11/17 11:38:41;;;;;;;17.80;6.97;;;7.10;99.90;;;;;;4971253;28;20256;-75
2023/11/17 11:41:11;;;;;;;27.10;7.50;;;7.10;99.90;;;;;;4971518;28;20309;-75
2023/11/17 11:43:47;;;;;;;15.50;7.63;;;7.20;99.90;;;;;;4971115;28;20178;-75
2023/11/17 11:46:17;;;;;;;16.20;7.47;;;7.20;99.90;;;;;;4970298;28;20213;-75
2023/11/17 11:49:12;;;;;;;12.77;7.13;;;7.20;99.90;;;;;;4971192;28;20218;-75
2023/11/17 11:51:47;;;;;;;16.33;7.80;;;7.20;99.90;;;;;;4960836;28;20205;-75
2023/11/17 11:54:13;;;;;;;15.07;7.20;;;7.30;99.90;;;;;;4970225;28;20209;-75
2023/11/17 11:56:41;;;;;;;15.23;7.17;;;7.30;99.90;;;;;;4970837;28;20333;-75
2023/11/17 11:59:10;;;;;;;17.40;7.30;;;7.30;99.90;;;;;;4970854;28;20373;-75
2023/11/17 12:01:36;;;;;;;16.37;7.77;;;7.30;99.90;;;;;;4970900;28;20174;-75
2023/11/17 12:04:07;;;;;;;13.33;6.90;;;7.20;99.90;;;;;;4973213;28;20192;-75
2023/11/17 12:06:35;;;;;;;18.50;7.53;;;7.30;99.90;;;;;;4974789;28;20681;-75
2023/11/17 12:09:08;;;;;;;15.50;7.00;;;7.30;99.90;;;;;;4974873;28;20546;-75
2023/11/17 12:11:36;;;;;;;14.77;7.37;;;7.30;99.90;;;;;;4967281;28;20189;-75
2023/11/17 12:14:06;;;;;;;18.80;7.83;;;7.30;99.90;;;;;;4974106;28;20170;-74
2023/11/17 12:16:41;;;;;;;14.77;7.93;;;7.30;99.90;;;;;;4967055;28;20189;-71
2023/11/17 12:19:08;;;;;;;14.67;7.27;;;7.30;99.90;;;;;;4974700;28;20184;-72
2023/11/17 12:21:40;;;;;;;11.07;6.33;;;7.30;99.90;;;;;;4974874;28;20182;-72
2023/11/17 12:24:11;;;;;;;14.87;6.40;;;7.30;99.90;;;;;;4974203;28;20268;-70
2023/11/17 12:26:40;;;;;;;15.70;6.57;;;7.40;99.90;;;;;;4967547;28;20619;-72
2023/11/17 12:29:06;;;;;;;12.97;6.87;;;7.40;99.90;;;;;;4974716;28;20595;-70
2023/11/17 12:31:33;;;;;;;14.93;6.67;;;7.30;99.90;;;;;;4966764;28;20232;-72
2023/11/17 12:33:59;;;;;;;18.47;7.40;;;7.30;99.90;;;;;;4974480;28;20174;-72
2023/11/17 12:36:25;;;;;;;12.27;6.00;;;7.30;99.90;;;;;;4973759;28;20204;-73
2023/11/17 12:38:59;;;;;;;13.00;6.43;;;7.20;99.90;;;;;;4974562;28;20197;-72
2023/11/17 12:41:26;;;;;;;12.63;6.53;;;7.20;99.90;;;;;;4974417;28;20661;-72
2023/11/17 12:43:56;;;;;;;18.30;5.70;;;7.10;99.90;;;;;;4974264;28;20186;-72
2023/11/17 12:46:25;;;;;;;14.83;5.83;;;7.10;99.90;;;;;;4973563;28;20202;-71
2023/11/17 12:48:51;;;;;;;11.87;5.87;;;7.20;99.90;;;;;;4974491;28;20185;-73
2023/11/17 12:51:30;;;;;;;13.37;6.20;;;7.20;99.90;;;;;;4974046;28;20228;-72